Time;durP1;ratioP1;P1;durP2;ratioP2;P2;SDS_P1;SDS_P2;PMS_P1;PMS_P2;Temp;Humidity;BMP_temperature;BMP_pressure;BME280_temperature;BME280_humidity;BME280_pressure;Samples;Min_cycle;Max_cycle;Signal;HPM_P1;HPM_P2
2023/02/07 00:00:09;;;;;;;10.82;4.70;;;1.60;99.90;;;;;;5078803;28;20039;-84
2023/02/07 00:02:35;;;;;;;8.43;4.57;;;1.60;99.90;;;;;;5078725;28;20558;-85
2023/02/07 00:05:01;;;;;;;11.63;5.28;;;1.60;99.90;;;;;;5079116;28;20024;-84
2023/02/07 00:07:26;;;;;;;11.93;5.88;;;1.60;99.90;;;;;;5083771;28;20035;-84
2023/02/07 00:09:52;;;;;;;12.75;5.25;;;1.50;99.90;;;;;;5097395;28;20060;-84
2023/02/07 00:12:17;;;;;;;11.85;4.70;;;1.50;99.90;;;;;;5092513;28;20042;-83
2023/02/07 00:14:43;;;;;;;11.70;4.88;;;1.50;99.90;;;;;;5090341;28;20032;-83
2023/02/07 00:17:09;;;;;;;11.27;4.50;;;1.50;99.90;;;;;;5078781;28;20031;-85
2023/02/07 00:19:34;;;;;;;11.20;5.03;;;1.40;99.90;;;;;;5096877;28;20028;-85
2023/02/07 00:22:00;;;;;;;9.75;4.75;;;1.40;99.90;;;;;;5078056;28;20637;-84
2023/02/07 00:24:26;;;;;;;11.10;4.50;;;1.40;99.90;;;;;;5096300;28;20499;-83
2023/02/07 00:26:52;;;;;;;12.30;5.60;;;1.40;99.90;;;;;;5077734;28;20021;-83
2023/02/07 00:29:18;;;;;;;10.57;4.90;;;1.40;99.90;;;;;;5095520;28;20058;-83
2023/02/07 00:31:44;;;;;;;10.80;5.15;;;1.40;99.90;;;;;;5095452;28;20020;-84
2023/02/07 00:34:10;;;;;;;12.63;5.53;;;1.30;99.90;;;;;;5059336;28;20478;-86
2023/02/07 00:36:36;;;;;;;13.25;5.60;;;1.30;99.90;;;;;;5058100;28;20565;-85
2023/02/07 00:39:05;;;;;;;10.45;5.13;;;1.30;99.90;;;;;;5057159;28;20474;-86
2023/02/07 00:41:31;;;;;;;12.70;5.28;;;1.30;99.90;;;;;;5057340;28;20116;-85
2023/02/07 00:43:57;;;;;;;10.27;5.45;;;1.30;99.90;;;;;;5056939;28;20127;-85
2023/02/07 00:46:23;;;;;;;12.02;5.40;;;1.20;99.90;;;;;;5057742;28;20116;-84
2023/02/07 00:48:49;;;;;;;12.70;5.50;;;1.20;99.90;;;;;;5057536;28;20375;-85
2023/02/07 00:51:14;;;;;;;9.75;5.07;;;1.20;99.90;;;;;;5057102;28;20024;-86
2023/02/07 00:53:43;;;;;;;14.40;5.78;;;1.20;99.90;;;;;;5056971;28;20031;-86
2023/02/07 00:56:08;;;;;;;11.35;5.68;;;1.20;99.90;;;;;;5057257;28;20359;-86
2023/02/07 00:58:34;;;;;;;13.75;6.10;;;1.20;99.90;;;;;;5057243;28;20024;-85
2023/02/07 01:01:00;;;;;;;11.25;5.05;;;1.20;99.90;;;;;;5073572;28;20036;-84
2023/02/07 01:03:26;;;;;;;14.60;5.65;;;1.20;99.90;;;;;;5056690;28;20017;-83
2023/02/07 01:05:52;;;;;;;10.65;5.43;;;1.20;99.90;;;;;;5074642;28;20036;-84
2023/02/07 01:08:17;;;;;;;12.43;5.65;;;1.20;99.90;;;;;;5056256;28;20024;-83
2023/02/07 01:10:44;;;;;;;9.57;5.63;;;1.20;99.90;;;;;;5074315;28;20025;-85
2023/02/07 01:13:10;;;;;;;12.32;5.57;;;1.20;99.90;;;;;;5056428;28;20382;-84
2023/02/07 01:15:38;;;;;;;16.17;6.22;;;1.20;99.90;;;;;;5056277;28;20070;-85
2023/02/07 01:18:05;;;;;;;13.88;5.03;;;1.20;99.90;;;;;;5056368;28;20052;-84
2023/02/07 01:20:31;;;;;;;13.32;6.57;;;1.20;99.90;;;;;;5056452;28;20024;-85
2023/02/07 01:22:56;;;;;;;12.20;6.15;;;1.20;99.90;;;;;;5055964;28;20028;-85
2023/02/07 01:25:22;;;;;;;13.75;6.35;;;1.20;99.90;;;;;;5055918;28;20033;-85
2023/02/07 01:27:47;;;;;;;10.80;5.53;;;1.10;99.90;;;;;;5073879;28;20100;-86
2023/02/07 01:30:13;;;;;;;11.38;6.25;;;1.10;99.90;;;;;;5056203;28;20108;-86
2023/02/07 01:32:39;;;;;;;10.95;5.68;;;1.10;99.90;;;;;;5055918;28;20024;-84
2023/02/07 01:35:05;;;;;;;12.88;5.60;;;1.10;99.90;;;;;;5073990;28;20025;-86
2023/02/07 01:37:30;;;;;;;14.10;5.90;;;1.10;99.90;;;;;;5073833;28;20115;-86
2023/02/07 01:39:56;;;;;;;10.35;5.68;;;1.10;99.90;;;;;;5056402;28;20074;-86
2023/02/07 01:42:26;;;;;;;13.27;5.90;;;1.10;99.90;;;;;;5056644;28;20111;-86
2023/02/07 01:44:59;;;;;;;12.93;5.63;;;1.00;99.90;;;;;;5055834;28;20140;-84
2023/02/07 01:47:25;;;;;;;10.25;5.30;;;1.00;99.90;;;;;;5073719;28;20028;-84
2023/02/07 01:49:54;;;;;;;16.48;5.65;;;1.00;99.90;;;;;;5056029;28;20020;-86
2023/02/07 01:52:26;;;;;;;11.95;6.13;;;0.90;99.90;;;;;;5056166;28;20021;-85
2023/02/07 01:54:57;;;;;;;11.60;5.85;;;0.90;99.90;;;;;;5056047;28;20499;-85
2023/02/07 01:57:23;;;;;;;15.23;6.93;;;0.90;99.90;;;;;;5056168;28;20023;-87
2023/02/07 01:59:51;;;;;;;13.63;6.85;;;0.90;99.90;;;;;;5055940;28;20056;-86
2023/02/07 02:02:20;;;;;;;12.35;6.25;;;0.90;99.90;;;;;;5055763;28;20021;-85
2023/02/07 02:04:48;;;;;;;11.57;6.30;;;0.90;99.90;;;;;;5073121;28;20033;-84
2023/02/07 02:07:14;;;;;;;14.90;6.35;;;0.90;99.90;;;;;;5055160;28;20023;-84
2023/02/07 02:09:40;;;;;;;15.23;6.03;;;0.90;99.90;;;;;;5055384;28;20028;-84
2023/02/07 02:12:20;;;;;;;13.25;6.45;;;0.80;99.90;;;;;;5055792;28;20016;-84
2023/02/07 02:15:24;;;;;;;13.63;6.20;;;0.80;99.90;;;;;;5055331;28;20070;-84
2023/02/07 02:18:25;;;;;;;11.80;5.77;;;0.80;99.90;;;;;;5073770;28;20385;-84
2023/02/07 02:21:19;;;;;;;11.70;5.68;;;0.70;99.90;;;;;;5055033;28;20048;-83
2023/02/07 02:23:56;;;;;;;10.73;5.82;;;0.70;99.90;;;;;;5073369;28;20098;-85
2023/02/07 02:26:28;;;;;;;14.63;6.10;;;0.70;99.90;;;;;;5055311;28;20621;-84
2023/02/07 02:29:34;;;;;;;11.93;6.45;;;0.70;99.90;;;;;;5055417;28;20486;-85
2023/02/07 02:32:08;;;;;;;11.82;5.95;;;0.60;99.90;;;;;;5055139;28;20032;-85
2023/02/07 02:34:59;;;;;;;13.05;6.07;;;0.60;99.90;;;;;;5073357;28;20024;-85
2023/02/07 02:37:34;;;;;;;12.45;5.85;;;0.60;99.90;;;;;;5078200;28;20024;-85
2023/02/07 02:40:21;;;;;;;12.57;6.05;;;0.60;99.90;;;;;;5075231;28;20020;-84
2023/02/07 02:43:01;;;;;;;14.13;6.55;;;0.50;99.90;;;;;;5093001;28;20054;-85
2023/02/07 02:45:32;;;;;;;16.45;8.45;;;0.50;99.90;;;;;;5092889;28;20435;-83
2023/02/07 02:47:58;;;;;;;14.48;7.40;;;0.50;99.90;;;;;;5074411;28;20023;-84
2023/02/07 02:50:29;;;;;;;17.27;7.80;;;0.50;99.90;;;;;;5074661;28;20036;-83
2023/02/07 02:52:56;;;;;;;13.25;7.68;;;0.50;99.90;;;;;;5092652;28;20028;-83
2023/02/07 02:55:43;;;;;;;15.55;7.38;;;0.50;99.90;;;;;;5074826;28;20023;-84
2023/02/07 02:58:36;;;;;;;13.63;7.25;;;0.50;99.90;;;;;;5092738;28;20069;-84
2023/02/07 03:01:17;;;;;;;12.95;6.70;;;0.50;99.90;;;;;;5074584;28;20486;-84
2023/02/07 03:03:46;;;;;;;15.55;8.18;;;0.40;99.90;;;;;;5074541;28;20024;-83
2023/02/07 03:06:30;;;;;;;17.13;8.20;;;0.40;99.90;;;;;;5074081;28;20097;-82
2023/02/07 03:09:13;;;;;;;16.20;9.13;;;0.40;99.90;;;;;;5074329;28;20118;-83
2023/02/07 03:11:45;;;;;;;;;;;0.40;99.90;;;;;;5074901;28;20557;-83
2023/02/07 03:14:29;;;;;;;12.68;6.95;;;0.30;99.90;;;;;;5092808;28;19914;-83
2023/02/07 03:17:05;;;;;;;13.80;7.22;;;0.30;99.90;;;;;;5092570;28;20509;-85
2023/02/07 03:19:45;;;;;;;13.43;7.28;;;0.30;99.90;;;;;;5092479;28;20044;-84
2023/02/07 03:22:17;;;;;;;16.08;8.13;;;0.30;99.90;;;;;;5074324;28;20020;-83
2023/02/07 03:24:52;;;;;;;15.52;7.95;;;0.20;99.90;;;;;;5074846;28;20028;-85
2023/02/07 03:27:20;;;;;;;13.82;7.25;;;0.20;99.90;;;;;;5077060;28;20020;-84
2023/02/07 03:29:48;;;;;;;17.17;8.55;;;0.20;99.90;;;;;;5078250;28;20020;-86
2023/02/07 03:32:18;;;;;;;15.82;8.43;;;0.20;99.90;;;;;;5078496;28;20527;-83
2023/02/07 03:35:05;;;;;;;15.68;7.53;;;0.10;99.90;;;;;;5077860;28;20020;-84
2023/02/07 03:37:43;;;;;;;18.20;8.45;;;0.20;99.90;;;;;;5078055;28;20466;-85
2023/02/07 03:40:10;;;;;;;15.70;8.05;;;0.10;99.90;;;;;;5077986;28;20024;-84
2023/02/07 03:42:49;;;;;;;14.30;7.95;;;0.10;99.90;;;;;;5077119;28;20389;-84
2023/02/07 03:45:17;;;;;;;15.25;8.80;;;0.10;99.90;;;;;;5078014;28;20040;-83
2023/02/07 03:47:43;;;;;;;15.60;8.98;;;0.10;99.90;;;;;;5077236;28;20028;-83
2023/02/07 03:50:10;;;;;;;14.32;8.02;;;0.00;99.90;;;;;;5077922;28;20028;-84
2023/02/07 03:52:35;;;;;;;14.55;8.88;;;0.00;99.90;;;;;;5078045;28;20028;-84
2023/02/07 03:55:01;;;;;;;16.58;8.15;;;0.00;99.90;;;;;;5078162;28;20489;-85
2023/02/07 03:57:26;;;;;;;14.88;8.07;;;0.00;99.90;;;;;;5077844;28;20017;-86
2023/02/07 03:59:52;;;;;;;15.75;8.57;;;0.00;99.90;;;;;;5077815;28;20474;-84
2023/02/07 04:02:17;;;;;;;17.60;9.40;;;0.00;99.90;;;;;;5095964;28;20012;-83
2023/02/07 04:04:43;;;;;;;16.77;8.93;;;0.00;99.90;;;;;;5077649;28;20494;-83
2023/02/07 04:07:10;;;;;;;18.85;10.18;;;0.00;99.90;;;;;;5095910;28;20081;-84
2023/02/07 04:09:36;;;;;;;19.30;9.75;;;0.00;99.90;;;;;;5077445;28;20058;-84
2023/02/07 04:12:03;;;;;;;18.25;9.38;;;0.00;99.90;;;;;;5095879;28;20036;-83
2023/02/07 04:14:28;;;;;;;17.30;8.75;;;-0.10;99.90;;;;;;5077723;28;20419;-84
2023/02/07 04:16:54;;;;;;;18.05;9.30;;;-0.10;99.90;;;;;;5077514;28;20020;-82
2023/02/07 04:19:19;;;;;;;19.40;9.57;;;-0.10;99.90;;;;;;5077614;28;20039;-84
2023/02/07 04:21:45;;;;;;;17.45;10.40;;;-0.10;99.90;;;;;;5074830;28;20028;-83
2023/02/07 04:24:11;;;;;;;19.98;9.18;;;-0.10;99.90;;;;;;5057758;28;20039;-85
2023/02/07 04:26:37;;;;;;;17.63;9.52;;;-0.20;99.90;;;;;;5057787;28;20021;-82
2023/02/07 04:29:02;;;;;;;19.02;9.70;;;-0.20;99.90;;;;;;5057861;28;20420;-84
2023/02/07 04:31:28;;;;;;;18.77;9.57;;;-0.10;99.90;;;;;;5058058;28;20020;-82
2023/02/07 04:33:53;;;;;;;15.35;8.80;;;-0.20;99.90;;;;;;5058507;28;20024;-84
2023/02/07 04:36:19;;;;;;;16.52;9.30;;;-0.20;99.90;;;;;;5077416;28;20380;-85
2023/02/07 04:38:45;;;;;;;15.88;9.43;;;-0.20;99.90;;;;;;5079406;28;20044;-84
2023/02/07 04:41:10;;;;;;;19.73;9.98;;;-0.20;99.90;;;;;;5079688;28;20111;-85
2023/02/07 04:43:36;;;;;;;21.25;10.20;;;-0.20;99.90;;;;;;5077970;28;20132;-84
2023/02/07 04:46:04;;;;;;;19.90;10.68;;;-0.30;99.90;;;;;;5077212;28;20074;-84
2023/02/07 04:48:30;;;;;;;19.20;9.35;;;-0.30;99.90;;;;;;5058446;28;20157;-84
2023/02/07 04:50:56;;;;;;;20.20;10.30;;;-0.30;99.90;;;;;;5058180;28;20478;-84
2023/02/07 04:53:22;;;;;;;19.23;10.10;;;-0.30;99.90;;;;;;5075340;28;20035;-84
2023/02/07 04:55:52;;;;;;;16.73;9.55;;;-0.30;99.90;;;;;;5056749;28;20104;-85
2023/02/07 04:58:20;;;;;;;18.70;10.50;;;-0.30;99.90;;;;;;5056759;28;20021;-85
2023/02/07 05:00:46;;;;;;;19.55;9.75;;;-0.30;99.90;;;;;;5074114;28;20035;-84
2023/02/07 05:03:11;;;;;;;21.63;10.40;;;-0.40;99.90;;;;;;5074349;28;20096;-83
2023/02/07 05:05:41;;;;;;;20.20;10.73;;;-0.40;99.90;;;;;;5056760;28;20462;-84
2023/02/07 05:08:08;;;;;;;21.08;11.13;;;-0.40;99.90;;;;;;5056011;28;20087;-83
2023/02/07 05:10:34;;;;;;;21.70;10.48;;;-0.40;99.90;;;;;;5055766;28;20053;-83
2023/02/07 05:13:00;;;;;;;19.67;10.20;;;-0.40;99.90;;;;;;5056241;28;20021;-82
2023/02/07 05:15:25;;;;;;;22.17;11.32;;;-0.50;99.90;;;;;;5056322;28;20040;-83
2023/02/07 05:17:55;;;;;;;21.35;10.65;;;-0.50;99.90;;;;;;5056112;28;20017;-83
2023/02/07 05:20:21;;;;;;;22.25;12.18;;;-0.50;99.90;;;;;;5056217;28;20025;-84
2023/02/07 05:22:47;;;;;;;21.25;11.07;;;-0.50;99.90;;;;;;5075977;28;20392;-83
2023/02/07 05:25:12;;;;;;;19.27;10.32;;;-0.50;99.90;;;;;;5062241;28;20033;-84
2023/02/07 05:27:38;;;;;;;20.67;10.07;;;-0.60;99.90;;;;;;5056029;28;20115;-83
2023/02/07 05:30:05;;;;;;;19.10;10.10;;;-0.60;99.90;;;;;;5056642;28;20363;-84
2023/02/07 05:35:14;;;;;;;18.15;10.02;;;-0.60;99.90;;;;;;5073952;28;20042;-84
2023/02/07 05:37:40;;;;;;;18.38;9.75;;;-0.60;99.90;;;;;;5055775;28;20013;-84
2023/02/07 05:40:06;;;;;;;19.23;10.63;;;-0.70;99.90;;;;;;5055674;28;20081;-84
2023/02/07 05:42:31;;;;;;;21.15;9.88;;;-0.70;99.90;;;;;;5055736;28;20016;-84
2023/02/07 05:44:57;;;;;;;16.92;10.20;;;-0.70;99.90;;;;;;5073367;28;20052;-85
2023/02/07 05:47:23;;;;;;;21.20;11.20;;;-0.70;99.90;;;;;;5056266;28;20020;-85
2023/02/07 05:49:48;;;;;;;18.67;9.73;;;-0.70;99.90;;;;;;5072848;28;20497;-83
2023/02/07 05:52:16;;;;;;;18.02;9.93;;;-0.80;99.90;;;;;;5055513;28;20024;-84
2023/02/07 05:54:42;;;;;;;20.77;9.73;;;-0.80;99.90;;;;;;5052463;28;20090;-84
2023/02/07 05:57:07;;;;;;;21.75;11.60;;;-0.70;99.90;;;;;;5052781;28;20021;-84
2023/02/07 05:59:33;;;;;;;18.52;10.98;;;-0.80;99.90;;;;;;5052448;28;20117;-83
2023/02/07 06:01:58;;;;;;;18.50;9.63;;;-0.80;99.90;;;;;;5053144;28;20024;-82
2023/02/07 06:04:24;;;;;;;17.08;9.93;;;-0.80;99.90;;;;;;5052106;28;20033;-81
2023/02/07 06:06:49;;;;;;;17.23;9.38;;;-0.70;99.90;;;;;;5070401;28;20405;-82
2023/02/07 06:09:16;;;;;;;19.45;9.65;;;-0.70;99.90;;;;;;5052315;28;20051;-83
2023/02/07 06:11:41;;;;;;;18.67;9.88;;;-0.70;99.90;;;;;;5070154;28;20021;-84
2023/02/07 06:14:07;;;;;;;25.75;13.65;;;-0.70;99.90;;;;;;5052600;28;20062;-82
2023/02/07 06:16:32;;;;;;;25.13;13.23;;;-0.70;99.90;;;;;;5070298;28;20040;-84
2023/02/07 06:18:58;;;;;;;25.17;11.90;;;-0.60;99.90;;;;;;5052398;28;20035;-83
2023/02/07 06:21:23;;;;;;;24.83;12.63;;;-0.60;99.90;;;;;;5069869;28;20532;-82
2023/02/07 06:23:50;;;;;;;22.70;11.60;;;-0.60;99.90;;;;;;5069432;28;20593;-83
2023/02/07 06:26:17;;;;;;;23.60;11.82;;;-0.60;99.90;;;;;;5052142;28;20452;-82
2023/02/07 06:28:42;;;;;;;24.30;12.48;;;-0.60;99.90;;;;;;5069959;28;20024;-83
2023/02/07 06:31:08;;;;;;;20.83;10.73;;;-0.60;99.90;;;;;;5070745;28;20043;-82
2023/02/07 06:33:33;;;;;;;24.42;12.20;;;-0.70;99.90;;;;;;5052944;28;20112;-82
2023/02/07 06:35:59;;;;;;;22.88;11.43;;;-0.70;99.90;;;;;;5071884;28;20051;-81
2023/02/07 06:38:25;;;;;;;25.42;12.57;;;-0.70;99.90;;;;;;5089950;28;20031;-82
2023/02/07 06:40:50;;;;;;;25.35;12.48;;;-0.60;99.90;;;;;;5072060;28;20048;-82
2023/02/07 06:43:16;;;;;;;24.00;11.10;;;-0.70;99.90;;;;;;5069504;28;20038;-82
2023/02/07 06:45:42;;;;;;;25.17;11.80;;;-0.70;99.90;;;;;;5059253;28;20439;-82
2023/02/07 06:48:08;;;;;;;24.88;11.73;;;-0.70;99.90;;;;;;5065088;28;20702;-84
2023/02/07 06:50:34;;;;;;;27.02;12.15;;;-0.70;99.90;;;;;;5057128;28;20028;-83
2023/02/07 06:53:00;;;;;;;27.13;12.48;;;-0.70;99.90;;;;;;5083998;28;20072;-82
2023/02/07 06:55:36;;;;;;;26.05;12.80;;;-0.80;99.90;;;;;;5072111;28;20032;-82
2023/02/07 06:58:02;;;;;;;29.13;13.02;;;-0.80;99.90;;;;;;5062545;28;20381;-82
2023/02/07 07:00:28;;;;;;;29.15;14.45;;;-0.80;99.90;;;;;;5070350;28;20099;-82
2023/02/07 07:02:54;;;;;;;28.83;13.10;;;-0.90;99.90;;;;;;5072582;28;20051;-81
2023/02/07 07:05:20;;;;;;;24.17;12.35;;;-0.80;99.90;;;;;;5070831;28;20035;-83
2023/02/07 07:07:46;;;;;;;27.20;13.23;;;-0.90;99.90;;;;;;5059480;28;20131;-82
2023/02/07 07:10:15;;;;;;;31.23;13.35;;;-0.80;99.90;;;;;;5065122;28;20480;-84
2023/02/07 07:12:41;;;;;;;35.95;16.98;;;-0.80;99.90;;;;;;5077570;28;20025;-83
2023/02/07 07:15:07;;;;;;;26.90;14.13;;;-0.80;99.90;;;;;;5080973;28;20050;-83
2023/02/07 07:17:32;;;;;;;32.10;14.95;;;-0.80;99.90;;;;;;5066376;28;20020;-84
2023/02/07 07:19:58;;;;;;;29.67;15.43;;;-0.80;99.90;;;;;;5061151;28;20020;-83
2023/02/07 07:22:24;;;;;;;30.00;14.93;;;-0.70;99.90;;;;;;5069164;28;20683;-82
2023/02/07 07:24:50;;;;;;;28.15;14.90;;;-0.70;99.90;;;;;;5071175;28;20029;-83
2023/02/07 07:27:19;;;;;;;28.55;14.73;;;-0.70;99.90;;;;;;5065856;28;20130;-82
2023/02/07 07:29:45;;;;;;;31.25;15.90;;;-0.70;99.90;;;;;;5058369;28;20466;-83
2023/02/07 07:32:11;;;;;;;29.80;14.43;;;-0.70;99.90;;;;;;5074532;28;20490;-83
2023/02/07 07:34:37;;;;;;;34.72;15.15;;;-0.70;99.90;;;;;;5073350;28;20020;-82
2023/02/07 07:37:03;;;;;;;28.83;14.65;;;-0.70;99.90;;;;;;5057325;28;20017;-82
2023/02/07 07:39:29;;;;;;;29.58;13.55;;;-0.70;99.90;;;;;;5064393;28;20031;-83
2023/02/07 07:41:54;;;;;;;27.33;13.32;;;-0.80;99.90;;;;;;5066516;28;20016;-84
2023/02/07 07:44:20;;;;;;;27.75;14.40;;;-0.70;99.90;;;;;;5057676;28;20032;-81
2023/02/07 07:46:46;;;;;;;29.48;13.88;;;-0.70;99.90;;;;;;5068919;28;20541;-85
2023/02/07 07:49:11;;;;;;;28.20;13.43;;;-0.70;99.90;;;;;;5067296;28;20032;-83
2023/02/07 07:51:37;;;;;;;31.10;15.10;;;-0.70;99.90;;;;;;5066250;28;20024;-81
2023/02/07 07:54:03;;;;;;;29.30;14.85;;;-0.70;99.90;;;;;;5057117;28;20016;-85
2023/02/07 07:56:28;;;;;;;33.20;15.82;;;-0.70;99.90;;;;;;5072907;28;20043;-83
2023/02/07 07:58:55;;;;;;;35.88;17.30;;;-0.70;99.90;;;;;;5082296;28;20032;-83
2023/02/07 08:01:21;;;;;;;30.85;15.65;;;-0.70;99.90;;;;;;5087688;28;20024;-82
2023/02/07 08:03:46;;;;;;;28.10;15.23;;;-0.70;99.90;;;;;;5060001;28;20457;-83
2023/02/07 08:06:12;;;;;;;33.53;17.13;;;-0.70;99.90;;;;;;5085633;28;20107;-84
2023/02/07 08:08:38;;;;;;;37.58;17.63;;;-0.60;99.90;;;;;;5072995;28;20450;-83
2023/02/07 08:11:06;;;;;;;42.60;17.80;;;-0.60;99.90;;;;;;5074972;28;20405;-82
2023/02/07 08:13:32;;;;;;;38.78;18.85;;;-0.60;99.90;;;;;;5062049;28;20024;-82
2023/02/07 08:15:57;;;;;;;35.22;17.95;;;-0.50;99.90;;;;;;5070330;28;20068;-83
2023/02/07 08:18:23;;;;;;;35.70;17.55;;;-0.40;99.90;;;;;;5072968;28;20051;-83
2023/02/07 08:20:49;;;;;;;36.80;18.20;;;-0.40;99.90;;;;;;5056741;28;20032;-81
2023/02/07 08:23:15;;;;;;;37.70;18.45;;;-0.40;99.90;;;;;;5056888;28;20572;-82
2023/02/07 08:25:41;;;;;;;37.58;18.42;;;-0.30;99.90;;;;;;5079913;28;20028;-82
2023/02/07 08:28:07;;;;;;;38.95;19.20;;;-0.30;99.90;;;;;;5077480;28;20016;-81
2023/02/07 08:30:33;;;;;;;29.55;16.15;;;-0.30;99.90;;;;;;5064560;28;20027;-82
2023/02/07 08:32:59;;;;;;;30.08;15.82;;;-0.30;99.90;;;;;;5056789;28;20025;-81
2023/02/07 08:35:25;;;;;;;33.15;17.83;;;-0.30;99.90;;;;;;5061071;28;20029;-82
2023/02/07 08:37:51;;;;;;;29.20;14.98;;;-0.20;99.90;;;;;;5058184;28;20024;-82
2023/02/07 08:40:17;;;;;;;29.15;16.35;;;-0.20;99.90;;;;;;5055624;28;20123;-81
2023/02/07 08:42:43;;;;;;;31.08;17.00;;;-0.10;99.90;;;;;;5063539;28;20103;-83
2023/02/07 08:45:12;;;;;;;27.40;15.23;;;0.00;99.90;;;;;;5070492;28;20048;-82
2023/02/07 08:47:37;;;;;;;32.72;17.55;;;0.10;99.90;;;;;;5078599;28;20097;-81
2023/02/07 08:50:05;;;;;;;37.92;20.83;;;0.10;99.90;;;;;;5074623;28;20082;-80
2023/02/07 08:52:31;;;;;;;35.17;18.40;;;0.20;99.90;;;;;;5063628;28;20111;-81
2023/02/07 08:54:56;;;;;;;37.05;19.08;;;0.10;99.90;;;;;;5069781;28;20131;-81
2023/02/07 08:57:24;;;;;;;34.40;17.92;;;0.10;99.90;;;;;;5059706;28;20031;-81
2023/02/07 08:59:51;;;;;;;39.63;19.48;;;0.10;99.90;;;;;;5077684;28;20027;-80
2023/02/07 09:02:17;;;;;;;33.47;17.67;;;0.20;99.90;;;;;;5069678;28;20024;-81
2023/02/07 09:04:42;;;;;;;35.50;19.45;;;0.20;99.90;;;;;;5076609;28;20386;-80
2023/02/07 09:07:12;;;;;;;38.08;20.90;;;0.20;99.90;;;;;;5096085;28;20074;-82
2023/02/07 09:09:37;;;;;;;37.95;19.77;;;0.20;99.90;;;;;;5107015;28;20024;-82
2023/02/07 09:12:03;;;;;;;40.67;20.92;;;0.20;99.90;;;;;;5064641;28;20023;-82
2023/02/07 09:14:29;;;;;;;41.25;20.15;;;0.20;99.90;;;;;;5067404;28;20473;-82
2023/02/07 09:16:55;;;;;;;41.10;21.33;;;0.30;99.90;;;;;;5086016;28;20036;-80
2023/02/07 09:19:20;;;;;;;40.83;21.48;;;0.40;99.90;;;;;;5077111;28;20020;-80
2023/02/07 09:21:46;;;;;;;46.50;23.20;;;0.50;99.90;;;;;;5071932;28;20031;-83
2023/02/07 09:24:12;;;;;;;38.58;19.80;;;0.50;99.90;;;;;;5060469;28;20024;-82
2023/02/07 09:26:37;;;;;;;45.88;22.27;;;0.60;99.90;;;;;;5066098;28;20069;-81
2023/02/07 09:29:04;;;;;;;42.30;21.88;;;0.70;99.90;;;;;;5062149;28;20466;-83
2023/02/07 09:31:32;;;;;;;44.08;22.58;;;0.90;99.90;;;;;;5082787;28;20017;-83
2023/02/07 09:33:58;;;;;;;44.53;21.80;;;1.50;99.90;;;;;;5068913;28;20036;-83
2023/02/07 09:36:27;;;;;;;38.47;21.23;;;2.20;99.90;;;;;;5056601;28;20020;-83
2023/02/07 09:38:53;;;;;;;43.20;20.92;;;3.10;99.90;;;;;;5071815;28;20020;-82
2023/02/07 09:41:47;;;;;;;42.58;22.13;;;3.50;99.90;;;;;;5072886;28;20079;-82
2023/02/07 09:44:34;;;;;;;44.25;22.02;;;4.00;99.90;;;;;;5063886;28;20036;-84
2023/02/07 09:47:21;;;;;;;36.42;19.38;;;5.20;99.90;;;;;;5067782;28;20378;-85
2023/02/07 09:49:53;;;;;;;36.53;18.65;;;6.30;99.90;;;;;;5057861;28;20466;-84
2023/02/07 09:52:43;;;;;;;34.22;18.83;;;7.00;99.90;;;;;;5067589;28;20039;-84
2023/02/07 09:55:31;;;;;;;36.08;20.45;;;7.40;99.90;;;;;;5071029;28;20545;-85
2023/02/07 09:58:05;;;;;;;38.60;20.73;;;8.00;99.90;;;;;;5063118;28;20079;-86
2023/02/07 10:00:35;;;;;;;38.22;21.15;;;8.70;99.90;;;;;;5089032;28;20024;-83
2023/02/07 10:03:22;;;;;;;34.47;19.45;;;9.40;99.90;;;;;;5075638;28;20012;-84
2023/02/07 10:06:03;;;;;;;41.70;22.85;;;10.20;99.90;;;;;;5062678;28;20075;-83
2023/02/07 10:08:28;;;;;;;33.72;20.52;;;10.80;99.90;;;;;;5061004;28;20028;-82
2023/02/07 10:11:16;;;;;;;36.90;21.67;;;11.40;99.90;;;;;;5052615;28;20202;-84
2023/02/07 10:13:47;;;;;;;30.10;18.63;;;12.00;99.90;;;;;;5061632;28;20021;-85
2023/02/07 10:16:28;;;;;;;29.15;18.02;;;12.40;99.90;;;;;;5062469;28;20036;-83
2023/02/07 10:19:09;;;;;;;29.98;19.17;;;12.80;99.90;;;;;;5071861;28;20028;-86
2023/02/07 10:21:43;;;;;;;32.55;17.85;;;13.00;99.90;;;;;;5055804;28;20746;-83
2023/02/07 10:24:48;;;;;;;27.90;16.92;;;12.90;99.90;;;;;;5081036;28;20075;-86
2023/02/07 10:27:50;;;;;;;24.30;15.75;;;13.30;99.90;;;;;;5024738;28;20097;-86
2023/02/07 10:30:24;;;;;;;24.45;15.88;;;13.60;99.90;;;;;;5034615;28;20114;-86
2023/02/07 10:32:50;;;;;;;21.50;15.25;;;13.80;99.90;;;;;;5058229;28;20016;-86
2023/02/07 10:35:20;;;;;;;23.33;14.88;;;14.00;99.90;;;;;;5083884;28;20047;-88
2023/02/07 10:37:50;;;;;;;20.13;14.02;;;14.30;99.90;;;;;;5079074;28;20517;-85
2023/02/07 10:40:26;;;;;;;20.77;12.85;;;14.60;99.90;;;;;;5057910;28;20028;-86
2023/02/07 10:43:29;;;;;;;17.92;11.85;;;14.70;99.90;;;;;;5070435;28;20473;-87
2023/02/07 10:46:04;;;;;;;16.15;10.85;;;14.50;99.90;;;;;;5058550;28;20141;-84
2023/02/07 10:48:32;;;;;;;14.98;10.25;;;14.70;99.90;;;;;;5063972;28;20524;-84
2023/02/07 10:51:01;;;;;;;14.05;10.50;;;14.60;99.90;;;;;;5054942;28;20031;-86
2023/02/07 10:53:49;;;;;;;14.98;9.80;;;14.70;99.90;;;;;;5050173;28;20059;-86
2023/02/07 10:56:28;;;;;;;13.85;9.13;;;14.70;99.90;;;;;;5052262;28;20037;-86
2023/02/07 10:58:59;;;;;;;12.70;8.57;;;14.70;99.90;;;;;;5061764;28;20489;-84
2023/02/07 11:01:31;;;;;;;12.65;8.40;;;14.90;99.90;;;;;;5058325;28;20024;-85
2023/02/07 11:03:57;;;;;;;11.32;8.80;;;15.30;99.90;;;;;;5073733;28;20073;-84
2023/02/07 11:06:31;;;;;;;11.38;7.85;;;15.30;99.90;;;;;;5057143;28;20028;-84
2023/02/07 11:09:17;;;;;;;10.48;7.00;;;15.50;99.90;;;;;;5060844;28;20020;-85
2023/02/07 11:11:50;;;;;;;10.38;7.28;;;15.60;99.90;;;;;;5083831;28;20028;-84
2023/02/07 11:14:25;;;;;;;10.25;6.97;;;15.90;99.90;;;;;;5054806;28;20261;-85
2023/02/07 11:17:18;;;;;;;9.10;6.38;;;16.20;99.90;;;;;;5070483;28;20328;-86
2023/02/07 11:19:44;;;;;;;10.23;6.90;;;16.60;99.90;;;;;;5054106;28;20024;-85
2023/02/07 11:22:20;;;;;;;10.35;7.05;;;16.50;99.90;;;;;;5054903;28;20027;-83
2023/02/07 11:24:47;;;;;;;8.55;6.45;;;16.50;99.90;;;;;;5067817;28;20500;-84
2023/02/07 11:27:16;;;;;;;8.77;6.40;;;16.30;99.90;;;;;;5064334;28;20012;-86
2023/02/07 11:30:07;;;;;;;8.95;6.10;;;16.30;99.90;;;;;;5069961;28;20378;-87
2023/02/07 11:32:35;;;;;;;9.20;6.15;;;16.60;99.90;;;;;;5063706;28;20119;-86
2023/02/07 11:35:08;;;;;;;8.45;5.30;;;16.90;99.90;;;;;;5065338;28;20027;-83
2023/02/07 11:37:46;;;;;;;7.88;4.97;;;17.20;99.90;;;;;;5060556;28;20107;-86
2023/02/07 11:40:28;;;;;;;9.60;6.30;;;17.50;99.90;;;;;;5058702;28;20413;-85
2023/02/07 11:43:12;;;;;;;6.47;4.70;;;17.60;99.90;;;;;;5060588;28;20054;-84
2023/02/07 11:45:45;;;;;;;6.30;4.70;;;17.40;99.90;;;;;;5060808;28;20055;-84
2023/02/07 11:48:16;;;;;;;;;;;17.40;99.90;;;;;;5081338;28;20032;-82
2023/02/07 11:50:51;;;;;;;6.00;4.57;;;17.50;99.90;;;;;;5071387;28;19908;-84
2023/02/07 11:53:23;;;;;;;6.38;4.22;;;17.90;99.90;;;;;;5073955;28;20028;-85
2023/02/07 11:55:50;;;;;;;7.13;4.53;;;18.10;99.90;;;;;;5063359;28;20489;-84
2023/02/07 11:58:32;;;;;;;7.25;4.85;;;18.10;99.90;;;;;;5064935;28;20482;-87
2023/02/07 12:01:03;;;;;;;6.10;4.50;;;18.30;99.90;;;;;;5057523;28;20016;-85
2023/02/07 12:03:43;;;;;;;5.35;3.97;;;18.40;99.90;;;;;;5056843;28;20021;-85
2023/02/07 12:06:15;;;;;;;6.43;4.47;;;18.70;99.90;;;;;;5067587;28;20504;-85
2023/02/07 12:08:40;;;;;;;6.82;4.28;;;18.90;99.90;;;;;;5058865;28;20027;-85
2023/02/07 12:11:14;;;;;;;5.80;3.90;;;19.10;99.90;;;;;;5070763;28;20024;-84
2023/02/07 12:13:49;;;;;;;6.32;4.50;;;19.20;99.90;;;;;;5066249;28;20028;-87
2023/02/07 12:16:27;;;;;;;5.30;3.72;;;19.00;99.90;;;;;;5061265;28;20012;-85
2023/02/07 12:19:02;;;;;;;6.22;4.47;;;18.70;99.90;;;;;;5060376;28;20039;-85
2023/02/07 12:21:54;;;;;;;5.43;3.53;;;18.70;99.90;;;;;;5067808;28;20106;-86
2023/02/07 12:24:26;;;;;;;5.72;3.80;;;19.00;99.90;;;;;;5056880;28;20033;-86
2023/02/07 12:26:58;;;;;;;6.85;4.75;;;19.00;99.90;;;;;;5060068;28;20013;-82
2023/02/07 12:29:48;;;;;;;5.88;4.28;;;18.80;99.30;;;;;;5069498;28;20042;-85
2023/02/07 12:32:45;;;;;;;5.72;4.25;;;18.70;99.70;;;;;;5076324;28;20051;-84
2023/02/07 12:35:17;;;;;;;6.60;4.45;;;18.90;99.50;;;;;;5062218;28;20111;-84
2023/02/07 12:38:08;;;;;;;6.97;5.22;;;18.80;99.40;;;;;;5065117;28;20025;-84
2023/02/07 12:40:50;;;;;;;5.45;4.32;;;18.50;99.50;;;;;;5072375;28;20495;-84
2023/02/07 12:43:23;;;;;;;6.55;4.20;;;18.30;99.40;;;;;;5080359;28;20035;-85
2023/02/07 12:45:50;;;;;;;;;;;18.40;99.40;;;;;;5065617;28;20037;-87
2023/02/07 12:48:24;;;;;;;4.68;3.58;;;18.00;99.90;;;;;;5059732;28;19949;-85
2023/02/07 12:51:16;;;;;;;5.00;3.25;;;18.00;99.90;;;;;;5061407;28;20029;-86
2023/02/07 12:53:50;;;;;;;4.28;2.72;;;18.30;99.90;;;;;;5060063;28;20031;-86
2023/02/07 12:56:34;;;;;;;5.28;3.70;;;18.50;99.90;;;;;;5056535;28;20019;-87